createdAt,value
2023-05-14T00:00:17.319Z,954.5624
2023-05-14T00:01:17.321Z,954.5428
2023-05-14T00:02:17.908Z,954.5366
2023-05-14T00:03:18.917Z,954.5264
2023-05-14T00:04:19.840Z,954.5196
2023-05-14T00:05:20.084Z,954.5096
2023-05-14T00:06:20.242Z,954.5043
2023-05-14T00:07:20.556Z,954.5073
2023-05-14T00:08:21.526Z,954.4973
2023-05-14T00:09:22.686Z,954.5000
2023-05-14T00:10:23.545Z,954.5028
2023-05-14T00:11:24.233Z,954.5023
2023-05-14T00:12:24.372Z,954.4993
2023-05-14T00:13:24.660Z,954.5014
2023-05-14T00:14:24.793Z,954.5012
2023-05-14T00:15:25.832Z,954.4886
2023-05-14T00:16:27.152Z,954.4821
2023-05-14T00:17:28.023Z,954.4707
2023-05-14T00:18:28.823Z,954.4624
2023-05-14T00:20:49.517Z,954.4413
2023-05-14T00:28:56.742Z,954.4393
2023-05-14T00:30:56.408Z,954.4266
2023-05-14T00:31:56.357Z,954.4241
2023-05-14T00:32:57.275Z,954.4266
2023-05-14T00:33:58.144Z,954.4236
2023-05-14T00:34:59.520Z,954.4229
2023-05-14T00:36:00.418Z,954.4186
2023-05-14T00:37:01.105Z,954.4061
2023-05-14T00:38:01.593Z,954.3904
2023-05-14T00:39:02.495Z,954.3834
2023-05-14T00:40:03.138Z,954.3818
2023-05-14T00:41:03.512Z,954.3735
2023-05-14T00:45:05.218Z,954.3760
2023-05-14T00:46:05.498Z,954.3878
2023-05-14T00:47:07.273Z,954.3918
2023-05-14T00:48:07.938Z,954.3932
2023-05-14T00:49:08.270Z,954.3979
2023-05-14T00:50:09.275Z,954.4026
2023-05-14T00:51:09.862Z,954.4000
2023-05-14T00:52:09.992Z,954.4014
2023-05-14T00:53:10.149Z,954.3994
2023-05-14T00:54:11.656Z,954.3984
2023-05-14T01:00:16.664Z,954.3856
2023-05-14T01:05:18.474Z,954.4384
2023-05-14T01:14:22.885Z,954.3746
2023-05-14T01:15:23.354Z,954.3580
2023-05-14T01:16:23.838Z,954.3450
2023-05-14T01:17:24.969Z,954.3218
2023-05-14T01:18:24.991Z,954.3134
2023-05-14T01:19:26.197Z,954.3157
2023-05-14T01:20:27.644Z,954.3200
2023-05-14T01:21:27.913Z,954.3323
2023-05-14T01:22:29.119Z,954.3364
2023-05-14T01:35:33.132Z,954.2975
2023-05-14T01:37:33.275Z,954.2800
2023-05-14T01:38:34.218Z,954.2651
2023-05-14T01:40:35.200Z,954.2349
2023-05-14T01:41:36.115Z,954.2281
2023-05-14T01:42:37.250Z,954.2205
2023-05-14T01:43:37.475Z,954.2256
2023-05-14T01:44:37.841Z,954.2300
2023-05-14T01:51:41.113Z,954.2368
2023-05-14T01:59:46.509Z,954.2350
2023-05-14T02:00:46.550Z,954.2338
2023-05-14T02:02:49.765Z,954.2231
2023-05-14T02:03:50.147Z,954.2161
2023-05-14T02:05:53.668Z,954.2157
2023-05-14T02:07:54.512Z,954.1984
2023-05-14T02:08:54.857Z,954.1950
2023-05-14T02:09:56.006Z,954.1896
2023-05-14T02:10:57.047Z,954.1888
2023-05-14T02:11:57.378Z,954.1871
2023-05-14T02:12:57.452Z,954.1758
2023-05-14T02:13:57.829Z,954.1727
2023-05-14T02:14:59.042Z,954.1714
2023-05-14T02:20:02.134Z,954.1602
2023-05-14T02:21:02.938Z,954.1602
2023-05-14T02:22:03.789Z,954.1559
2023-05-14T02:23:03.908Z,954.1591
2023-05-14T02:24:05.174Z,954.1619
2023-05-14T02:25:05.860Z,954.1511
2023-05-14T02:26:06.912Z,954.1530
2023-05-14T02:35:15.101Z,954.0688
2023-05-14T02:36:14.541Z,954.0644
2023-05-14T02:37:14.888Z,954.0520
2023-05-14T02:38:15.533Z,954.0444
2023-05-14T02:39:15.890Z,954.0323
2023-05-14T02:40:16.811Z,954.0300
2023-05-14T02:41:18.317Z,954.0228
2023-05-14T02:42:19.274Z,954.0059
2023-05-14T02:44:20.862Z,954.0065
2023-05-14T02:45:21.324Z,954.0093
2023-05-14T02:46:21.614Z,954.0117
2023-05-14T02:47:22.696Z,954.0071
2023-05-14T02:48:23.393Z,954.0068
2023-05-14T02:49:24.580Z,954.0058
2023-05-14T02:50:25.273Z,953.9968
2023-05-14T02:51:25.468Z,953.9897
2023-05-14T02:52:26.180Z,953.9850
2023-05-14T02:53:26.880Z,953.9916
2023-05-14T02:54:27.433Z,953.9943
2023-05-14T02:55:28.465Z,953.9918
2023-05-14T02:56:29.219Z,953.9900
2023-05-14T02:57:29.320Z,953.9838
2023-05-14T02:58:30.227Z,953.9753
2023-05-14T02:59:30.507Z,953.9811
2023-05-14T03:00:30.539Z,953.9888
2023-05-14T03:01:31.345Z,953.9937
2023-05-14T03:02:32.162Z,953.9977
2023-05-14T03:11:42.262Z,953.9594
2023-05-14T03:13:41.998Z,953.9366
2023-05-14T03:14:43.517Z,953.9282
2023-05-14T03:15:44.774Z,953.9138
2023-05-14T03:16:45.620Z,953.9005
2023-05-14T03:17:46.821Z,953.8914
2023-05-14T03:21:48.335Z,953.8825
2023-05-14T03:22:49.175Z,953.8918
2023-05-14T03:23:49.930Z,953.8978
2023-05-14T03:24:50.183Z,953.9022
2023-05-14T03:25:50.538Z,953.8982
2023-05-14T03:26:51.920Z,953.8921
2023-05-14T03:31:55.725Z,953.8639
2023-05-14T03:42:02.944Z,953.8235
2023-05-14T03:43:03.437Z,953.8268
2023-05-14T03:44:03.657Z,953.8366
2023-05-14T03:45:04.532Z,953.8493
2023-05-14T03:46:05.442Z,953.8561
2023-05-14T03:48:06.331Z,953.8737
2023-05-14T03:49:06.941Z,953.8698
2023-05-14T03:51:06.722Z,953.8559
2023-05-14T03:52:10.597Z,953.8516
2023-05-14T03:54:09.318Z,953.8309
2023-05-14T04:02:13.972Z,953.8451
2023-05-14T04:03:14.707Z,953.8550
2023-05-14T04:04:15.790Z,953.8595
2023-05-14T04:05:17.190Z,953.8593
2023-05-14T04:07:18.093Z,953.8742
2023-05-14T04:08:19.112Z,953.8827
2023-05-14T04:10:20.317Z,953.8911
2023-05-14T04:11:20.547Z,953.8967
2023-05-14T04:12:20.559Z,953.8969
2023-05-14T04:13:22.097Z,953.8911
2023-05-14T04:14:22.815Z,953.8940
2023-05-14T04:18:24.553Z,953.9009
2023-05-14T04:19:24.650Z,953.9114
2023-05-14T04:20:24.886Z,953.9197
2023-05-14T04:21:26.125Z,953.9163
2023-05-14T04:22:26.361Z,953.9116
2023-05-14T04:23:26.604Z,953.8970
2023-05-14T04:24:27.786Z,953.8802
2023-05-14T04:30:32.613Z,953.9089
2023-05-14T04:31:34.567Z,953.9133
2023-05-14T04:35:35.708Z,953.9413
2023-05-14T04:36:36.442Z,953.9338
2023-05-14T04:37:37.129Z,953.9141
2023-05-14T04:38:37.312Z,953.9231
2023-05-14T04:43:40.252Z,953.9333
2023-05-14T04:49:44.212Z,953.9385
2023-05-14T04:50:45.274Z,953.9429
2023-05-14T04:51:46.112Z,953.9548
2023-05-14T04:52:46.802Z,953.9631
2023-05-14T04:53:47.762Z,953.9706
2023-05-14T04:54:47.508Z,953.9745
2023-05-14T04:55:48.448Z,953.9822
2023-05-14T05:01:53.309Z,954.0276
2023-05-14T05:13:02.079Z,953.9916
2023-05-14T05:14:02.749Z,954.0073
2023-05-14T05:16:02.808Z,954.0369
2023-05-14T05:17:03.271Z,954.0285
2023-05-14T05:18:04.807Z,954.0283
2023-05-14T05:19:05.908Z,954.0340
2023-05-14T05:20:06.790Z,954.0477
2023-05-14T05:21:07.254Z,954.0521
2023-05-14T05:28:10.863Z,954.0218
2023-05-14T05:29:11.186Z,954.0205
2023-05-14T05:30:11.783Z,954.0273
2023-05-14T05:31:13.169Z,954.0261
2023-05-14T05:33:13.229Z,954.0353
2023-05-14T05:35:13.941Z,954.0295
2023-05-14T05:36:14.593Z,954.0189
2023-05-14T05:37:15.910Z,954.0178
2023-05-14T05:51:27.929Z,953.9872
2023-05-14T05:52:28.720Z,953.9755
2023-05-14T05:53:29.423Z,953.9793
2023-05-14T05:54:30.054Z,953.9686
2023-05-14T05:55:31.285Z,953.9704
2023-05-14T05:56:32.560Z,953.9762
2023-05-14T05:57:32.623Z,953.9832
2023-05-14T05:58:33.280Z,953.9911
2023-05-14T05:59:34.007Z,953.9662
2023-05-14T06:09:38.585Z,953.9909
2023-05-14T06:10:39.137Z,953.9928
2023-05-14T06:11:39.382Z,953.9998
2023-05-14T06:12:39.965Z,954.0209
2023-05-14T06:13:40.738Z,954.0291
2023-05-14T06:14:41.188Z,954.0207
2023-05-14T06:15:43.053Z,954.0115
2023-05-14T06:16:44.407Z,954.0147
2023-05-14T06:17:44.854Z,954.0103
2023-05-14T06:18:45.803Z,954.0068
2023-05-14T06:19:46.352Z,954.0104
2023-05-14T06:20:46.527Z,954.0154
2023-05-14T06:22:49.843Z,954.0281
2023-05-14T06:23:50.302Z,954.0420
2023-05-14T06:24:50.358Z,954.0502
2023-05-14T06:26:54.662Z,954.0627
2023-05-14T06:27:55.006Z,954.0629
2023-05-14T06:28:55.091Z,954.0669
2023-05-14T06:30:57.474Z,954.0679
2023-05-14T06:31:57.812Z,954.0627
2023-05-14T06:34:01.022Z,954.0525
2023-05-14T06:35:02.108Z,954.0479
2023-05-14T06:37:02.866Z,954.0491
2023-05-14T06:38:02.934Z,954.0421
2023-05-14T06:39:03.690Z,954.0453
2023-05-14T06:40:05.186Z,954.0396
2023-05-14T06:41:05.350Z,954.0327
2023-05-14T06:43:07.611Z,954.0221
2023-05-14T06:48:17.027Z,954.0349
2023-05-14T06:49:17.961Z,954.0386
2023-05-14T06:50:18.883Z,954.0414
2023-05-14T06:54:38.691Z,954.0593
2023-05-14T06:55:39.799Z,954.0449
2023-05-14T06:56:40.053Z,954.0593
2023-05-14T06:57:41.024Z,954.0425
2023-05-14T06:58:42.843Z,954.0348
2023-05-14T07:00:42.978Z,954.0320
2023-05-14T07:01:44.088Z,954.0330
2023-05-14T07:02:45.032Z,954.0352
2023-05-14T07:09:26.055Z,954.0784
2023-05-14T07:10:28.654Z,954.0861
2023-05-14T07:18:08.915Z,954.0433
2023-05-14T07:19:09.746Z,954.0320
2023-05-14T07:20:11.216Z,954.0253
2023-05-14T07:21:11.335Z,954.0289
2023-05-14T07:22:12.969Z,954.0367
2023-05-14T07:23:13.756Z,954.0184
2023-05-14T07:25:14.655Z,954.0098
2023-05-14T07:26:14.711Z,954.0005
2023-05-14T07:27:15.726Z,953.9982
2023-05-14T07:28:17.188Z,953.9916
2023-05-14T07:29:17.237Z,953.9862
2023-05-14T07:30:17.693Z,953.9940
2023-05-14T07:31:19.364Z,953.9969
2023-05-14T07:32:20.246Z,954.0119
2023-05-14T07:36:21.477Z,953.9824
2023-05-14T07:38:22.457Z,953.9785
2023-05-14T07:39:22.758Z,953.9428
2023-05-14T07:40:23.081Z,953.9464
2023-05-14T07:46:25.179Z,953.9614
2023-05-14T07:47:26.518Z,953.9756
2023-05-14T07:48:27.015Z,953.9877
2023-05-14T07:49:27.935Z,953.9668
2023-05-14T07:50:29.142Z,953.9809
2023-05-14T07:51:30.206Z,953.9816
2023-05-14T07:52:31.957Z,953.9725
2023-05-14T07:53:32.585Z,953.9504
2023-05-14T07:54:33.388Z,953.9465
2023-05-14T07:55:34.145Z,953.9723
2023-05-14T07:56:46.949Z,953.9619
2023-05-14T08:06:54.103Z,953.9472
2023-05-14T08:10:56.994Z,953.8940
2023-05-14T08:13:57.140Z,953.9118
2023-05-14T08:14:57.616Z,953.9106
2023-05-14T08:15:57.624Z,953.8832
2023-05-14T08:16:58.854Z,953.8825
2023-05-14T08:17:59.454Z,953.9005
2023-05-14T08:19:00.497Z,953.9257
2023-05-14T08:20:01.839Z,953.9092
2023-05-14T08:21:05.408Z,953.8948
2023-05-14T08:22:06.196Z,953.8948
2023-05-14T08:23:07.412Z,953.8618
2023-05-14T08:25:10.066Z,953.8525
2023-05-14T08:26:10.436Z,953.8524
2023-05-14T08:29:46.208Z,953.8303
2023-05-14T08:30:46.630Z,953.8241
2023-05-14T08:31:46.858Z,953.8144
2023-05-14T08:32:47.489Z,953.8000
2023-05-14T08:33:48.502Z,953.7947
2023-05-14T08:34:50.003Z,953.7851
2023-05-14T08:36:55.195Z,953.7793
2023-05-14T08:37:55.678Z,953.7759
2023-05-14T08:38:56.018Z,953.7982
2023-05-14T08:39:56.454Z,953.8196
2023-05-14T08:40:56.939Z,953.8181
2023-05-14T08:41:57.801Z,953.8150
2023-05-14T08:42:58.951Z,953.8176
2023-05-14T08:43:59.736Z,953.8341
2023-05-14T08:45:00.781Z,953.8250
2023-05-14T08:46:01.897Z,953.7751
2023-05-14T08:47:02.246Z,953.7856
2023-05-14T08:48:04.863Z,953.7780
2023-05-14T08:50:03.718Z,953.7725
2023-05-14T08:51:04.191Z,953.7875
2023-05-14T08:52:04.948Z,953.7740
2023-05-14T08:53:05.528Z,953.7546
2023-05-14T08:54:05.723Z,953.7550
2023-05-14T08:55:06.651Z,953.7249
2023-05-14T08:56:06.526Z,953.7217
2023-05-14T08:57:07.012Z,953.7280
2023-05-14T09:05:14.789Z,953.6060
2023-05-14T09:06:15.580Z,953.6179
2023-05-14T09:07:16.249Z,953.6125
2023-05-14T09:09:04.183Z,953.5543
2023-05-14T09:10:04.608Z,953.5519
2023-05-14T09:11:06.628Z,953.5212
2023-05-14T09:12:07.477Z,953.5137
2023-05-14T09:13:08.683Z,953.5582
2023-05-14T09:14:09.880Z,953.5358
2023-05-14T09:15:10.941Z,953.5043
2023-05-14T09:16:12.466Z,953.4948
2023-05-14T09:17:12.255Z,953.5051
2023-05-14T09:18:13.495Z,953.5536
2023-05-14T09:19:14.227Z,953.5523
2023-05-14T09:20:15.167Z,953.5367
2023-05-14T09:24:04.407Z,953.5336
2023-05-14T09:30:09.629Z,953.4564
2023-05-14T09:31:09.740Z,953.4609
2023-05-14T09:33:09.799Z,953.4525
2023-05-14T09:35:10.686Z,953.4388
2023-05-14T09:36:11.969Z,953.4175
2023-05-14T09:37:12.892Z,953.4029
2023-05-14T09:43:22.971Z,953.3721
2023-05-14T09:46:26.617Z,953.3671
2023-05-14T09:47:26.917Z,953.3616
2023-05-14T09:48:26.985Z,953.3533
2023-05-14T09:49:27.810Z,953.3477
2023-05-14T09:51:29.033Z,953.3533
2023-05-14T09:52:29.700Z,953.3555
2023-05-14T09:53:30.756Z,953.3474
2023-05-14T09:57:58.389Z,953.3507
2023-05-14T09:58:58.897Z,953.3646
2023-05-14T10:00:00.001Z,953.3600
2023-05-14T10:01:01.078Z,953.3427
2023-05-14T10:02:02.260Z,953.3140
2023-05-14T10:03:02.262Z,953.3230
2023-05-14T10:04:04.057Z,953.3205
2023-05-14T10:05:05.262Z,953.3182
2023-05-14T10:06:05.399Z,953.3367
2023-05-14T10:07:06.413Z,953.3309
2023-05-14T10:08:06.792Z,953.3049
2023-05-14T10:09:07.405Z,953.2843
2023-05-14T10:10:08.514Z,953.3093
2023-05-14T10:12:09.651Z,953.2720
2023-05-14T10:13:10.601Z,953.2585
2023-05-14T10:16:41.015Z,953.2534
2023-05-14T10:17:41.149Z,953.2575
2023-05-14T10:18:42.303Z,953.2616
2023-05-14T10:19:43.166Z,953.2618
2023-05-14T10:20:44.306Z,953.2612
2023-05-14T10:21:45.144Z,953.2789
2023-05-14T10:22:45.408Z,953.2563
2023-05-14T10:29:25.077Z,953.2357
2023-05-14T10:30:26.446Z,953.2338
2023-05-14T10:31:26.430Z,953.2409
2023-05-14T10:32:27.166Z,953.2231
2023-05-14T10:33:27.679Z,953.2161
2023-05-14T10:34:29.008Z,953.2004
2023-05-14T10:35:30.244Z,953.1980
2023-05-14T10:36:31.102Z,953.1793
2023-05-14T10:37:31.752Z,953.1697
2023-05-14T10:42:20.660Z,953.1766
2023-05-14T10:51:07.710Z,953.1843
2023-05-14T10:52:07.749Z,953.1677
2023-05-14T10:53:08.717Z,953.1582
2023-05-14T10:54:09.123Z,953.1484
2023-05-14T10:55:10.404Z,953.1317
2023-05-14T10:56:10.629Z,953.1326
2023-05-14T10:57:11.346Z,953.1077
2023-05-14T10:58:11.531Z,953.1072
2023-05-14T10:59:12.615Z,953.0952
2023-05-14T11:00:13.273Z,953.0812
2023-05-14T11:01:13.329Z,953.0656
2023-05-14T11:02:15.901Z,953.0536
2023-05-14T11:06:40.378Z,953.0190
2023-05-14T11:10:41.680Z,952.9832
2023-05-14T11:11:42.771Z,952.9657
2023-05-14T11:12:43.440Z,952.9156
2023-05-14T11:13:44.244Z,952.8975
2023-05-14T11:18:48.534Z,952.8427
2023-05-14T11:19:50.461Z,952.8479
2023-05-14T11:31:31.454Z,952.7547
2023-05-14T11:32:31.719Z,952.7414
2023-05-14T11:33:33.341Z,952.7177
2023-05-14T11:34:33.322Z,952.6893
2023-05-14T11:35:34.284Z,952.6998
2023-05-14T11:36:36.277Z,952.6929
2023-05-14T11:38:36.441Z,952.6764
2023-05-14T11:41:39.737Z,952.6520
2023-05-14T11:43:45.782Z,952.6516
2023-05-14T11:48:53.674Z,952.6171
2023-05-14T11:49:53.924Z,952.6169
2023-05-14T11:51:29.098Z,952.6224
2023-05-14T11:53:33.493Z,952.6229
2023-05-14T11:55:31.290Z,952.5977
2023-05-14T11:58:32.230Z,952.5979
2023-05-14T11:59:33.201Z,952.5770
2023-05-14T12:01:34.298Z,952.5557
2023-05-14T12:02:35.234Z,952.5591
2023-05-14T12:03:35.821Z,952.5370
2023-05-14T12:04:35.482Z,952.5335
2023-05-14T12:05:36.148Z,952.5430
2023-05-14T12:06:38.167Z,952.5673
2023-05-14T12:07:37.924Z,952.5607
2023-05-14T12:12:40.472Z,952.6111
2023-05-14T12:13:41.867Z,952.5939
2023-05-14T12:14:42.592Z,952.5530
2023-05-14T12:21:54.434Z,952.5325
2023-05-14T12:22:55.209Z,952.5358
2023-05-14T12:23:55.923Z,952.5344
2023-05-14T12:24:57.145Z,952.5341
2023-05-14T12:25:57.719Z,952.5765
2023-05-14T12:26:58.028Z,952.5695
2023-05-14T12:27:58.380Z,952.5566
2023-05-14T12:28:59.170Z,952.5457
2023-05-14T12:30:09.203Z,952.5125
2023-05-14T12:31:00.486Z,952.5432
2023-05-14T12:33:02.928Z,952.5180
2023-05-14T12:34:04.087Z,952.5380
2023-05-14T12:36:20.746Z,952.4930
2023-05-14T12:37:07.549Z,952.4583
2023-05-14T12:38:07.682Z,952.4354
2023-05-14T12:39:08.894Z,952.4293
2023-05-14T12:40:10.353Z,952.4147
2023-05-14T12:41:11.491Z,952.4297
2023-05-14T12:42:12.172Z,952.4142
2023-05-14T12:43:12.506Z,952.4109
2023-05-14T12:45:13.720Z,952.3966
2023-05-14T12:49:17.886Z,952.4207
2023-05-14T12:51:19.740Z,952.4327
2023-05-14T12:53:24.058Z,952.4539
2023-05-14T12:56:25.357Z,952.4543
2023-05-14T12:58:26.328Z,952.4460
2023-05-14T12:59:26.587Z,952.4228
2023-05-14T13:00:26.922Z,952.4066
2023-05-14T13:01:27.608Z,952.3994
2023-05-14T13:02:28.637Z,952.3886
2023-05-14T13:03:29.138Z,952.3790
2023-05-14T13:04:30.438Z,952.3737
2023-05-14T13:05:31.541Z,952.3654
2023-05-14T13:06:32.491Z,952.3593
2023-05-14T13:07:32.957Z,952.3455
2023-05-14T13:08:33.400Z,952.3291
2023-05-14T13:09:33.980Z,952.3198
2023-05-14T13:10:34.598Z,952.3075
2023-05-14T13:17:42.272Z,952.2238
2023-05-14T13:19:42.870Z,952.2220
2023-05-14T13:20:43.482Z,952.2193
2023-05-14T13:21:44.105Z,952.2158
2023-05-14T13:22:44.853Z,952.2086
2023-05-14T13:24:46.768Z,952.2379
2023-05-14T13:27:47.396Z,952.2462
2023-05-14T13:29:48.274Z,952.2280
2023-05-14T13:36:53.498Z,952.2000
2023-05-14T13:37:54.516Z,952.1940
2023-05-14T13:38:55.648Z,952.1686
2023-05-14T13:39:55.921Z,952.1697
2023-05-14T13:40:56.322Z,952.1723
2023-05-14T13:41:56.628Z,952.1520
2023-05-14T13:42:57.701Z,952.1445
2023-05-14T13:43:58.388Z,952.1469
2023-05-14T13:45:58.741Z,952.1353
2023-05-14T13:46:58.944Z,952.1418
2023-05-14T13:47:59.526Z,952.1630
2023-05-14T13:48:59.625Z,952.1651
2023-05-14T13:50:00.865Z,952.1503
2023-05-14T13:51:02.019Z,952.1502
2023-05-14T13:52:02.447Z,952.1646
2023-05-14T13:53:03.301Z,952.1700
2023-05-14T13:54:04.301Z,952.1855
2023-05-14T13:55:04.976Z,952.2082
2023-05-14T13:56:05.321Z,952.2222
2023-05-14T13:57:06.434Z,952.2291
2023-05-14T13:58:06.861Z,952.2058
2023-05-14T13:59:06.689Z,952.2028
2023-05-14T14:00:07.354Z,952.2075
2023-05-14T14:01:07.701Z,952.2144
2023-05-14T14:03:08.775Z,952.2304
2023-05-14T14:04:09.603Z,952.2256
2023-05-14T14:05:10.144Z,952.1968
2023-05-14T14:06:10.472Z,952.2037
2023-05-14T14:07:11.301Z,952.2082
2023-05-14T14:08:23.473Z,952.2180
2023-05-14T14:09:19.039Z,952.2302
2023-05-14T14:12:20.772Z,952.2032
2023-05-14T14:13:21.778Z,952.1869
2023-05-14T14:14:20.932Z,952.1751
2023-05-14T14:15:20.937Z,952.1656
2023-05-14T14:16:22.129Z,952.1434
2023-05-14T14:17:23.109Z,952.1052
2023-05-14T14:25:28.709Z,952.0361
2023-05-14T14:26:28.718Z,952.0135
2023-05-14T14:27:29.449Z,952.0032
2023-05-14T14:28:29.759Z,951.9946
2023-05-14T14:29:29.853Z,951.9693
2023-05-14T14:30:30.958Z,951.9560
2023-05-14T14:31:31.860Z,951.9486
2023-05-14T14:32:33.058Z,951.9416
2023-05-14T14:33:33.480Z,951.9139
2023-05-14T14:34:34.567Z,951.9204
2023-05-14T14:35:35.329Z,951.9330
2023-05-14T14:36:35.785Z,951.9359
2023-05-14T14:37:37.340Z,951.9254
2023-05-14T14:44:39.665Z,951.9884
2023-05-14T14:45:40.014Z,951.9984
2023-05-14T14:46:41.032Z,952.0076
2023-05-14T14:47:42.171Z,952.0093
2023-05-14T14:48:42.501Z,952.0207
2023-05-14T14:49:43.372Z,952.0791
2023-05-14T14:50:43.824Z,952.0997
2023-05-14T14:51:45.472Z,952.1152
2023-05-14T14:52:46.742Z,952.1580
2023-05-14T14:53:47.152Z,952.1468
2023-05-14T14:54:47.356Z,952.1298
2023-05-14T14:55:48.613Z,952.1598
2023-05-14T14:56:49.833Z,952.1721
2023-05-14T14:57:51.061Z,952.1527
2023-05-14T14:58:51.011Z,952.1298
2023-05-14T14:59:51.059Z,952.1025
2023-05-14T15:00:52.163Z,952.0791
2023-05-14T15:01:52.667Z,952.0245
2023-05-14T15:02:52.930Z,951.9960
2023-05-14T15:03:54.010Z,951.9166
2023-05-14T15:04:54.753Z,951.8845
2023-05-14T15:05:55.498Z,951.8882
2023-05-14T15:06:55.902Z,951.8757
2023-05-14T15:07:56.360Z,951.8561
2023-05-14T15:08:57.465Z,951.8452
2023-05-14T15:09:58.014Z,951.8234
2023-05-14T15:10:58.208Z,951.8000
2023-05-14T15:11:58.437Z,951.7888
2023-05-14T15:12:58.534Z,951.7640
2023-05-14T15:13:59.154Z,951.7347
2023-05-14T15:14:59.615Z,951.7135
2023-05-14T15:16:00.701Z,951.7007
2023-05-14T15:17:01.240Z,951.7372
2023-05-14T15:18:02.418Z,951.7650
2023-05-14T15:19:02.691Z,951.8051
2023-05-14T15:20:03.305Z,951.8740
2023-05-14T15:21:04.445Z,951.9466
2023-05-14T15:22:04.440Z,951.9993
2023-05-14T15:23:05.124Z,952.0566
2023-05-14T15:24:05.786Z,952.1271
2023-05-14T15:25:05.997Z,952.1887
2023-05-14T15:26:06.025Z,952.2302
2023-05-14T15:27:07.096Z,952.2703
2023-05-14T15:28:08.216Z,952.3220
2023-05-14T15:29:08.455Z,952.3687
2023-05-14T15:30:09.203Z,952.4005
2023-05-14T15:31:10.253Z,952.4312
2023-05-14T15:32:11.610Z,952.4376
2023-05-14T15:33:12.387Z,952.4196
2023-05-14T15:34:14.053Z,952.3875
2023-05-14T15:35:13.751Z,952.3638
2023-05-14T15:36:14.213Z,952.3621
2023-05-14T15:37:14.290Z,952.3735
2023-05-14T15:38:15.311Z,952.3702
2023-05-14T15:39:15.696Z,952.3627
2023-05-14T15:40:16.000Z,952.3525
2023-05-14T15:41:17.366Z,952.3529
2023-05-14T15:43:18.195Z,952.3822
2023-05-14T15:45:20.945Z,952.4246
2023-05-14T15:46:22.054Z,952.4334
2023-05-14T15:47:22.791Z,952.4432
2023-05-14T15:48:23.848Z,952.4418
2023-05-14T15:49:24.193Z,952.4326
2023-05-14T15:50:25.276Z,952.4277
2023-05-14T15:51:25.122Z,952.4279
2023-05-14T15:52:26.116Z,952.4391
2023-05-14T15:53:26.977Z,952.4531
2023-05-14T15:54:27.835Z,952.4655
2023-05-14T15:55:28.098Z,952.4635
2023-05-14T15:56:28.931Z,952.4594
2023-05-14T15:57:29.790Z,952.4402
2023-05-14T15:58:29.856Z,952.4180
2023-05-14T15:59:30.890Z,952.4091
2023-05-14T16:00:32.024Z,952.3884
2023-05-14T16:01:32.556Z,952.3683
2023-05-14T16:02:33.449Z,952.3534
2023-05-14T16:03:34.067Z,952.3509
2023-05-14T16:04:34.371Z,952.3426
2023-05-14T16:05:35.517Z,952.3316
2023-05-14T16:06:36.278Z,952.3407
2023-05-14T16:07:37.534Z,952.3614
2023-05-14T16:08:38.275Z,952.3772
2023-05-14T16:09:38.778Z,952.3962
2023-05-14T16:10:39.668Z,952.4214
2023-05-14T16:11:39.885Z,952.4579
2023-05-14T16:12:40.790Z,952.4877
2023-05-14T16:14:42.079Z,952.5286
2023-05-14T16:16:42.776Z,952.5941
2023-05-14T16:17:44.504Z,952.6172
2023-05-14T16:18:45.368Z,952.6386
2023-05-14T16:19:45.783Z,952.6542
2023-05-14T16:20:46.731Z,952.6866
2023-05-14T16:21:47.211Z,952.7300
2023-05-14T16:22:47.841Z,952.7889
2023-05-14T16:23:48.648Z,952.8470
2023-05-14T16:24:49.149Z,952.8654
2023-05-14T16:25:50.498Z,952.8864
2023-05-14T16:27:50.759Z,952.8796
2023-05-14T16:28:52.335Z,952.8941
2023-05-14T16:29:52.762Z,952.9031
2023-05-14T16:30:53.926Z,952.9243
2023-05-14T16:31:54.946Z,952.9476
2023-05-14T16:32:56.051Z,952.9771
2023-05-14T16:33:57.194Z,952.9784
2023-05-14T16:34:57.652Z,952.9607
2023-05-14T16:35:58.169Z,952.9337
2023-05-14T16:38:00.089Z,952.9011
2023-05-14T16:39:07.314Z,952.8772
2023-05-14T16:40:03.325Z,952.8510
2023-05-14T16:41:03.843Z,952.8353
2023-05-14T16:42:03.932Z,952.8119
2023-05-14T16:43:04.809Z,952.8002
2023-05-14T16:44:05.044Z,952.8060
2023-05-14T16:45:05.805Z,952.8152
2023-05-14T16:46:06.497Z,952.8107
2023-05-14T16:47:07.231Z,952.8209
2023-05-14T16:49:08.146Z,952.7587
2023-05-14T16:52:09.814Z,952.6962
2023-05-14T16:53:10.128Z,952.6709
2023-05-14T16:54:10.276Z,952.6472
2023-05-14T16:57:13.330Z,952.6741
2023-05-14T16:58:14.193Z,952.6740
2023-05-14T16:59:15.334Z,952.6718
2023-05-14T17:00:16.442Z,952.6893
2023-05-14T17:01:17.833Z,952.7017
2023-05-14T17:02:18.638Z,952.7134
2023-05-14T17:03:18.681Z,952.7216
2023-05-14T17:04:19.321Z,952.7193
2023-05-14T17:05:19.690Z,952.7197
2023-05-14T17:06:20.564Z,952.7275
2023-05-14T17:07:21.362Z,952.7338
2023-05-14T17:08:22.681Z,952.7216
2023-05-14T17:09:24.115Z,952.7150
2023-05-14T17:10:24.450Z,952.7028
2023-05-14T17:11:25.543Z,952.6941
2023-05-14T17:12:25.746Z,952.6918
2023-05-14T17:15:28.129Z,952.6709
2023-05-14T17:16:27.870Z,952.6635
2023-05-14T17:17:28.761Z,952.6581
2023-05-14T17:19:29.431Z,952.6307
2023-05-14T17:20:29.911Z,952.6014
2023-05-14T17:22:32.389Z,952.5864
2023-05-14T17:23:32.565Z,952.6255
2023-05-14T17:24:32.630Z,952.6786
2023-05-14T17:25:33.398Z,952.7156
2023-05-14T17:27:36.861Z,952.7187
2023-05-14T17:28:38.013Z,952.7321
2023-05-14T17:29:39.351Z,952.7468
2023-05-14T17:30:39.416Z,952.7626
2023-05-14T17:31:40.269Z,952.7654
2023-05-14T17:32:41.621Z,952.7647
2023-05-14T17:33:42.600Z,952.7766
2023-05-14T17:34:43.595Z,952.7716
2023-05-14T17:35:44.463Z,952.7668
2023-05-14T17:36:44.371Z,952.7658
2023-05-14T17:37:45.120Z,952.7696
2023-05-14T17:38:47.508Z,952.7830
2023-05-14T17:48:53.030Z,952.8387
2023-05-14T17:49:53.201Z,952.8427
2023-05-14T17:50:54.249Z,952.8468
2023-05-14T17:51:55.167Z,952.8500
2023-05-14T17:52:56.789Z,952.8588
2023-05-14T17:53:56.383Z,952.8682
2023-05-14T17:54:57.246Z,952.8828
2023-05-14T17:55:57.346Z,952.8998
2023-05-14T17:56:58.110Z,952.9029
2023-05-14T17:57:59.321Z,952.9097
2023-05-14T17:59:00.055Z,952.9200
2023-05-14T18:00:01.183Z,952.9289
2023-05-14T18:01:01.301Z,952.9465
2023-05-14T18:02:01.942Z,952.9616
2023-05-14T18:03:02.360Z,952.9943
2023-05-14T18:04:02.549Z,953.0323
2023-05-14T18:05:02.998Z,953.0745
2023-05-14T18:06:03.592Z,953.1053
2023-05-14T18:07:04.522Z,953.1253
2023-05-14T18:08:05.957Z,953.1242
2023-05-14T18:09:07.105Z,953.1100
2023-05-14T18:10:07.167Z,953.0875
2023-05-14T18:11:07.917Z,953.0640
2023-05-14T18:12:08.697Z,953.0536
2023-05-14T18:13:09.675Z,953.0593
2023-05-14T18:14:11.055Z,953.0673
2023-05-14T18:15:11.328Z,953.0677
2023-05-14T18:16:12.015Z,953.0600
2023-05-14T18:17:12.367Z,953.0439
2023-05-14T18:18:12.655Z,953.0835
2023-05-14T18:19:13.387Z,953.1365
2023-05-14T18:20:13.487Z,953.1572
2023-05-14T18:21:14.830Z,953.1691
2023-05-14T18:23:15.340Z,953.1598
2023-05-14T18:24:16.039Z,953.1477
2023-05-14T18:25:16.636Z,953.1523
2023-05-14T18:26:18.008Z,953.1689
2023-05-14T18:28:19.014Z,953.1877
2023-05-14T18:29:19.918Z,953.1929
2023-05-14T18:30:20.327Z,953.2039
2023-05-14T18:31:21.041Z,953.2107
2023-05-14T18:32:21.202Z,953.2143
2023-05-14T18:42:12.675Z,953.1923
2023-05-14T18:43:13.708Z,953.1921
2023-05-14T18:44:13.862Z,953.1843